sensor_id;sensor_type;location;lat;lon;timestamp;pressure;altitude;pressure_sealevel;temperature;humidity
4598;BME280;62772;48.646;8.906;2022-11-20T00:00:52;95761.78;;;3.34;100.00
4598;BME280;62772;48.646;8.906;2022-11-20T00:05:53;95756.66;;;3.13;100.00
4598;BME280;62772;48.646;8.906;2022-11-20T00:10:56;95765.69;;;3.41;100.00
4598;BME280;62772;48.646;8.906;2022-11-20T00:15:58;95761.53;;;3.30;100.00
4598;BME280;62772;48.646;8.906;2022-11-20T00:21:02;95761.44;;;3.40;100.00
4598;BME280;62772;48.646;8.906;2022-11-20T00:26:07;95763.75;;;3.52;100.00
4598;BME280;62772;48.646;8.906;2022-11-20T00:31:10;95770.78;;;3.27;100.00
4598;BME280;62772;48.646;8.906;2022-11-20T00:36:14;95768.69;;;3.24;100.00
4598;BME280;62772;48.646;8.906;2022-11-20T00:41:17;95767.41;;;3.56;100.00
4598;BME280;62772;48.646;8.906;2022-11-20T00:46:19;95764.84;;;3.46;100.00
4598;BME280;62772;48.646;8.906;2022-11-20T00:51:21;95768.69;;;3.24;100.00
4598;BME280;62772;48.646;8.906;2022-11-20T00:56:25;95772.44;;;3.23;100.00
4598;BME280;62772;48.646;8.906;2022-11-20T01:01:26;95776.41;;;3.21;100.00
4598;BME280;62772;48.646;8.906;2022-11-20T01:06:31;95765.22;;;3.00;100.00
4598;BME280;62772;48.646;8.906;2022-11-20T01:11:36;95777.03;;;2.58;100.00
4598;BME280;62772;48.646;8.906;2022-11-20T01:16:41;95770.22;;;3.01;100.00
4598;BME280;62772;48.646;8.906;2022-11-20T01:21:44;95779.16;;;2.56;100.00
4598;BME280;62772;48.646;8.906;2022-11-20T01:26:49;95782.53;;;2.66;100.00
4598;BME280;62772;48.646;8.906;2022-11-20T01:31:51;95785.69;;;2.68;100.00
4598;BME280;62772;48.646;8.906;2022-11-20T01:36:53;95773.16;;;2.89;100.00
4598;BME280;62772;48.646;8.906;2022-11-20T01:41:56;95784.59;;;2.75;100.00
4598;BME280;62772;48.646;8.906;2022-11-20T01:47:17;95781.88;;;2.90;100.00
4598;BME280;62772;48.646;8.906;2022-11-20T01:52:23;95786.00;;;2.62;100.00
4598;BME280;62772;48.646;8.906;2022-11-20T01:57:29;95788.69;;;2.46;100.00
4598;BME280;62772;48.646;8.906;2022-11-20T02:02:32;95785.41;;;2.70;100.00
4598;BME280;62772;48.646;8.906;2022-11-20T02:07:33;95778.22;;;2.26;100.00
4598;BME280;62772;48.646;8.906;2022-11-20T02:12:36;95780.88;;;2.26;100.00
4598;BME280;62772;48.646;8.906;2022-11-20T02:17:56;95779.47;;;2.49;100.00
4598;BME280;62772;48.646;8.906;2022-11-20T02:23:00;95781.56;;;2.52;100.00
4598;BME280;62772;48.646;8.906;2022-11-20T02:28:06;95780.25;;;2.54;100.00
4598;BME280;62772;48.646;8.906;2022-11-20T02:33:07;95769.03;;;2.78;100.00
4598;BME280;62772;48.646;8.906;2022-11-20T02:38:08;95775.72;;;2.60;100.00
4598;BME280;62772;48.646;8.906;2022-11-20T02:43:11;95778.72;;;2.38;100.00
4598;BME280;62772;48.646;8.906;2022-11-20T02:48:12;95785.44;;;1.99;100.00
4598;BME280;62772;48.646;8.906;2022-11-20T02:53:13;95779.63;;;2.08;100.00
4598;BME280;62772;48.646;8.906;2022-11-20T02:58:16;95771.78;;;1.82;100.00
4598;BME280;62772;48.646;8.906;2022-11-20T03:03:17;95772.78;;;2.12;100.00
4598;BME280;62772;48.646;8.906;2022-11-20T03:08:18;95770.13;;;2.07;100.00
4598;BME280;62772;48.646;8.906;2022-11-20T03:13:21;95773.56;;;2.07;100.00
4598;BME280;62772;48.646;8.906;2022-11-20T03:18:22;95776.38;;;2.31;100.00
4598;BME280;62772;48.646;8.906;2022-11-20T03:23:23;95776.84;;;2.39;100.00
4598;BME280;62772;48.646;8.906;2022-11-20T03:28:26;95780.44;;;1.98;100.00
4598;BME280;62772;48.646;8.906;2022-11-20T03:33:28;95775.88;;;2.24;100.00
4598;BME280;62772;48.646;8.906;2022-11-20T03:38:29;95772.44;;;2.29;100.00
4598;BME280;62772;48.646;8.906;2022-11-20T03:43:32;95769.25;;;2.32;100.00
4598;BME280;62772;48.646;8.906;2022-11-20T03:48:33;95770.69;;;1.98;100.00
4598;BME280;62772;48.646;8.906;2022-11-20T03:53:34;95771.19;;;2.06;100.00
4598;BME280;62772;48.646;8.906;2022-11-20T03:58:39;95768.00;;;2.19;100.00
4598;BME280;62772;48.646;8.906;2022-11-20T04:03:41;95769.00;;;2.28;100.00
4598;BME280;62772;48.646;8.906;2022-11-20T04:08:42;95772.22;;;2.15;100.00
4598;BME280;62772;48.646;8.906;2022-11-20T04:13:48;95778.72;;;2.38;100.00
4598;BME280;62772;48.646;8.906;2022-11-20T04:18:53;95758.84;;;2.61;100.00
4598;BME280;62772;48.646;8.906;2022-11-20T04:23:55;95753.53;;;2.66;100.00
4598;BME280;62772;48.646;8.906;2022-11-20T04:28:58;95763.66;;;2.49;100.00
4598;BME280;62772;48.646;8.906;2022-11-20T04:34:00;95750.06;;;2.76;100.00
4598;BME280;62772;48.646;8.906;2022-11-20T04:39:03;95749.78;;;2.78;100.00
4598;BME280;62772;48.646;8.906;2022-11-20T04:44:06;95754.09;;;2.63;100.00
4598;BME280;62772;48.646;8.906;2022-11-20T04:49:08;95756.44;;;2.65;100.00
4598;BME280;62772;48.646;8.906;2022-11-20T04:54:10;95753.09;;;2.49;100.00
4598;BME280;62772;48.646;8.906;2022-11-20T04:59:14;95754.16;;;2.53;100.00
4598;BME280;62772;48.646;8.906;2022-11-20T05:04:15;95751.19;;;2.65;100.00
4598;BME280;62772;48.646;8.906;2022-11-20T05:09:15;95747.06;;;2.48;100.00
4598;BME280;62772;48.646;8.906;2022-11-20T05:14:19;95738.72;;;2.76;100.00
4598;BME280;62772;48.646;8.906;2022-11-20T05:19:19;95744.19;;;2.84;100.00
4598;BME280;62772;48.646;8.906;2022-11-20T05:24:20;95742.03;;;2.52;100.00
4598;BME280;62772;48.646;8.906;2022-11-20T05:29:23;95748.09;;;2.47;100.00
4598;BME280;62772;48.646;8.906;2022-11-20T05:34:24;95749.22;;;2.36;100.00
4598;BME280;62772;48.646;8.906;2022-11-20T05:39:25;95745.59;;;2.22;100.00
4598;BME280;62772;48.646;8.906;2022-11-20T05:44:28;95748.50;;;2.70;100.00
4598;BME280;62772;48.646;8.906;2022-11-20T05:49:29;95740.09;;;2.68;100.00
4598;BME280;62772;48.646;8.906;2022-11-20T05:54:29;95737.19;;;2.69;100.00
4598;BME280;62772;48.646;8.906;2022-11-20T05:59:33;95751.38;;;2.73;100.00
4598;BME280;62772;48.646;8.906;2022-11-20T06:04:33;95741.31;;;2.81;100.00
4598;BME280;62772;48.646;8.906;2022-11-20T06:09:34;95743.19;;;2.80;100.00
4598;BME280;62772;48.646;8.906;2022-11-20T06:14:37;95746.56;;;2.86;100.00
4598;BME280;62772;48.646;8.906;2022-11-20T06:19:38;95748.88;;;2.98;100.00
4598;BME280;62772;48.646;8.906;2022-11-20T06:24:39;95748.72;;;2.79;100.00
4598;BME280;62772;48.646;8.906;2022-11-20T06:29:42;95741.22;;;2.96;100.00
4598;BME280;62772;48.646;8.906;2022-11-20T06:34:43;95736.63;;;3.12;100.00
4598;BME280;62772;48.646;8.906;2022-11-20T06:39:44;95735.91;;;3.01;100.00
4598;BME280;62772;48.646;8.906;2022-11-20T06:44:47;95732.00;;;2.94;100.00
4598;BME280;62772;48.646;8.906;2022-11-20T06:49:48;95742.81;;;2.92;100.00
4598;BME280;62772;48.646;8.906;2022-11-20T06:54:48;95738.59;;;2.96;100.00
4598;BME280;62772;48.646;8.906;2022-11-20T06:59:51;95747.41;;;3.16;100.00
4598;BME280;62772;48.646;8.906;2022-11-20T07:04:52;95755.13;;;3.07;100.00
4598;BME280;62772;48.646;8.906;2022-11-20T07:09:53;95765.94;;;3.11;100.00
4598;BME280;62772;48.646;8.906;2022-11-20T07:14:56;95768.16;;;3.27;100.00
4598;BME280;62772;48.646;8.906;2022-11-20T07:19:57;95765.50;;;3.33;100.00
4598;BME280;62772;48.646;8.906;2022-11-20T07:24:58;95761.72;;;3.44;100.00
4598;BME280;62772;48.646;8.906;2022-11-20T07:30:02;95762.31;;;3.36;100.00
4598;BME280;62772;48.646;8.906;2022-11-20T07:35:04;95768.81;;;3.43;100.00
4598;BME280;62772;48.646;8.906;2022-11-20T07:40:05;95768.59;;;3.40;100.00
4598;BME280;62772;48.646;8.906;2022-11-20T07:45:09;95770.97;;;3.41;100.00
4598;BME280;62772;48.646;8.906;2022-11-20T07:50:10;95759.50;;;3.56;100.00
4598;BME280;62772;48.646;8.906;2022-11-20T07:55:11;95775.47;;;3.41;100.00
4598;BME280;62772;48.646;8.906;2022-11-20T08:00:15;95783.06;;;3.48;100.00
4598;BME280;62772;48.646;8.906;2022-11-20T08:05:16;95792.84;;;3.47;100.00
4598;BME280;62772;48.646;8.906;2022-11-20T08:10:17;95785.00;;;3.66;100.00
4598;BME280;62772;48.646;8.906;2022-11-20T08:15:21;95790.78;;;3.68;100.00
4598;BME280;62772;48.646;8.906;2022-11-20T08:20:22;95801.03;;;3.75;100.00
4598;BME280;62772;48.646;8.906;2022-11-20T08:25:23;95809.09;;;3.89;100.00
4598;BME280;62772;48.646;8.906;2022-11-20T08:30:26;95795.28;;;3.97;100.00
4598;BME280;62772;48.646;8.906;2022-11-20T08:35:28;95795.75;;;4.04;100.00
4598;BME280;62772;48.646;8.906;2022-11-20T08:40:28;95814.75;;;4.06;100.00
4598;BME280;62772;48.646;8.906;2022-11-20T08:45:32;95818.00;;;4.22;100.00
4598;BME280;62772;48.646;8.906;2022-11-20T08:50:32;95819.63;;;4.18;100.00
4598;BME280;62772;48.646;8.906;2022-11-20T08:55:33;95828.25;;;4.29;100.00
4598;BME280;62772;48.646;8.906;2022-11-20T09:00:40;95831.50;;;4.21;100.00
4598;BME280;62772;48.646;8.906;2022-11-20T09:05:41;95833.25;;;4.30;100.00
4598;BME280;62772;48.646;8.906;2022-11-20T09:10:43;95835.69;;;4.27;100.00
4598;BME280;62772;48.646;8.906;2022-11-20T09:15:46;95836.88;;;4.10;100.00
4598;BME280;62772;48.646;8.906;2022-11-20T09:20:47;95839.88;;;4.28;100.00
4598;BME280;62772;48.646;8.906;2022-11-20T09:25:48;95848.06;;;4.31;100.00
4598;BME280;62772;48.646;8.906;2022-11-20T09:30:51;95850.28;;;4.19;100.00
4598;BME280;62772;48.646;8.906;2022-11-20T09:35:52;95851.41;;;4.13;100.00
4598;BME280;62772;48.646;8.906;2022-11-20T09:40:57;95853.09;;;4.28;100.00
4598;BME280;62772;48.646;8.906;2022-11-20T09:46:06;95855.38;;;4.10;100.00
4598;BME280;62772;48.646;8.906;2022-11-20T09:51:16;95856.06;;;4.21;100.00
4598;BME280;62772;48.646;8.906;2022-11-20T09:56:20;95849.03;;;4.41;100.00
4598;BME280;62772;48.646;8.906;2022-11-20T10:01:29;95846.81;;;4.24;100.00
4598;BME280;62772;48.646;8.906;2022-11-20T10:06:33;95851.25;;;4.28;100.00
4598;BME280;62772;48.646;8.906;2022-11-20T10:11:41;95856.97;;;4.41;100.00
4598;BME280;62772;48.646;8.906;2022-11-20T10:16:54;95863.78;;;4.17;100.00
4598;BME280;62772;48.646;8.906;2022-11-20T10:22:07;95856.81;;;4.51;100.00
4598;BME280;62772;48.646;8.906;2022-11-20T10:32:42;95849.19;;;4.49;100.00
4598;BME280;62772;48.646;8.906;2022-11-20T10:37:45;95849.59;;;4.38;100.00
4598;BME280;62772;48.646;8.906;2022-11-20T10:42:51;95840.41;;;4.54;100.00
4598;BME280;62772;48.646;8.906;2022-11-20T10:48:10;95842.19;;;4.59;100.00
4598;BME280;62772;48.646;8.906;2022-11-20T10:53:18;95834.03;;;4.79;100.00
4598;BME280;62772;48.646;8.906;2022-11-20T10:58:28;95838.19;;;4.85;100.00
4598;BME280;62772;48.646;8.906;2022-11-20T11:03:34;95832.75;;;4.96;100.00
4598;BME280;62772;48.646;8.906;2022-11-20T11:08:37;95826.47;;;4.92;100.00
4598;BME280;62772;48.646;8.906;2022-11-20T11:13:38;95819.78;;;4.94;100.00
4598;BME280;62772;48.646;8.906;2022-11-20T11:18:41;95809.38;;;5.03;100.00
4598;BME280;62772;48.646;8.906;2022-11-20T11:23:42;95805.28;;;5.11;100.00
4598;BME280;62772;48.646;8.906;2022-11-20T11:28:53;95789.91;;;5.13;100.00
4598;BME280;62772;48.646;8.906;2022-11-20T11:34:06;95794.91;;;5.14;100.00
4598;BME280;62772;48.646;8.906;2022-11-20T11:39:15;95784.03;;;5.35;100.00
4598;BME280;62772;48.646;8.906;2022-11-20T11:44:19;95776.56;;;5.37;100.00
4598;BME280;62772;48.646;8.906;2022-11-20T11:49:41;95780.53;;;5.53;100.00
4598;BME280;62772;48.646;8.906;2022-11-20T11:54:46;95761.50;;;5.51;100.00
4598;BME280;62772;48.646;8.906;2022-11-20T12:00:00;95775.22;;;5.53;100.00
4598;BME280;62772;48.646;8.906;2022-11-20T12:05:11;95765.25;;;5.64;100.00
4598;BME280;62772;48.646;8.906;2022-11-20T12:10:21;95767.31;;;5.67;100.00
4598;BME280;62772;48.646;8.906;2022-11-20T12:15:29;95769.31;;;5.75;100.00
4598;BME280;62772;48.646;8.906;2022-11-20T12:20:41;95760.09;;;5.73;100.00
4598;BME280;62772;48.646;8.906;2022-11-20T12:25:48;95749.69;;;5.76;100.00
4598;BME280;62772;48.646;8.906;2022-11-20T12:31:02;95744.66;;;5.61;100.00
4598;BME280;62772;48.646;8.906;2022-11-20T12:36:19;95744.06;;;5.64;100.00
4598;BME280;62772;48.646;8.906;2022-11-20T12:41:39;95748.00;;;5.80;100.00
4598;BME280;62772;48.646;8.906;2022-11-20T12:47:12;95756.44;;;5.69;100.00
4598;BME280;62772;48.646;8.906;2022-11-20T12:52:28;95744.06;;;5.64;100.00
4598;BME280;62772;48.646;8.906;2022-11-20T12:57:38;95756.25;;;5.65;100.00
4598;BME280;62772;48.646;8.906;2022-11-20T13:03:09;95754.28;;;5.71;100.00
4598;BME280;62772;48.646;8.906;2022-11-20T13:08:20;95760.16;;;5.68;100.00
4598;BME280;62772;48.646;8.906;2022-11-20T13:13:25;95757.94;;;5.42;100.00
4598;BME280;62772;48.646;8.906;2022-11-20T13:18:35;95759.22;;;5.44;100.00
4598;BME280;62772;48.646;8.906;2022-11-20T13:23:41;95759.84;;;5.55;100.00
4598;BME280;62772;48.646;8.906;2022-11-20T13:28:41;95745.13;;;5.63;100.00
4598;BME280;62772;48.646;8.906;2022-11-20T13:33:44;95742.56;;;5.58;100.00
4598;BME280;62772;48.646;8.906;2022-11-20T13:38:50;95746.44;;;5.33;100.00
4598;BME280;62772;48.646;8.906;2022-11-20T13:43:52;95741.19;;;5.47;100.00
4598;BME280;62772;48.646;8.906;2022-11-20T13:48:52;95736.25;;;5.07;100.00
4598;BME280;62772;48.646;8.906;2022-11-20T13:54:13;95734.91;;;4.71;100.00
4598;BME280;62772;48.646;8.906;2022-11-20T13:59:29;95729.69;;;5.04;100.00
4598;BME280;62772;48.646;8.906;2022-11-20T14:04:36;95722.53;;;5.05;100.00
4598;BME280;62772;48.646;8.906;2022-11-20T14:09:49;95717.97;;;4.92;100.00
4598;BME280;62772;48.646;8.906;2022-11-20T14:14:52;95709.88;;;5.02;100.00
4598;BME280;62772;48.646;8.906;2022-11-20T14:19:54;95703.00;;;5.34;100.00
4598;BME280;62772;48.646;8.906;2022-11-20T14:25:18;95704.94;;;5.28;100.00
4598;BME280;62772;48.646;8.906;2022-11-20T14:30:23;95711.13;;;5.23;100.00
4598;BME280;62772;48.646;8.906;2022-11-20T14:35:26;95697.47;;;5.16;100.00
4598;BME280;62772;48.646;8.906;2022-11-20T14:40:32;95699.75;;;5.04;100.00
4598;BME280;62772;48.646;8.906;2022-11-20T14:45:36;95694.34;;;5.28;100.00
4598;BME280;62772;48.646;8.906;2022-11-20T14:50:38;95685.63;;;5.27;100.00
4598;BME280;62772;48.646;8.906;2022-11-20T14:55:42;95670.22;;;5.16;100.00
4598;BME280;62772;48.646;8.906;2022-11-20T15:00:53;95664.38;;;5.00;100.00
4598;BME280;62772;48.646;8.906;2022-11-20T15:05:54;95664.25;;;4.91;100.00
4598;BME280;62772;48.646;8.906;2022-11-20T15:10:58;95655.53;;;4.90;100.00
4598;BME280;62772;48.646;8.906;2022-11-20T15:16:00;95641.88;;;4.83;100.00
4598;BME280;62772;48.646;8.906;2022-11-20T15:21:03;95637.31;;;4.89;100.00
4598;BME280;62772;48.646;8.906;2022-11-20T15:26:11;95632.69;;;4.95;100.00
4598;BME280;62772;48.646;8.906;2022-11-20T15:31:13;95625.19;;;5.02;100.00
4598;BME280;62772;48.646;8.906;2022-11-20T15:36:14;95631.00;;;4.85;100.00
4598;BME280;62772;48.646;8.906;2022-11-20T15:41:18;95633.69;;;4.66;100.00
4598;BME280;62772;48.646;8.906;2022-11-20T15:46:23;95623.69;;;4.96;100.00
4598;BME280;62772;48.646;8.906;2022-11-20T15:51:28;95613.06;;;4.82;100.00
4598;BME280;62772;48.646;8.906;2022-11-20T15:56:32;95617.81;;;4.66;100.00
4598;BME280;62772;48.646;8.906;2022-11-20T16:01:34;95621.56;;;4.79;100.00
4598;BME280;62772;48.646;8.906;2022-11-20T16:06:35;95619.28;;;4.39;100.00
4598;BME280;62772;48.646;8.906;2022-11-20T16:11:38;95618.47;;;4.58;100.00
4598;BME280;62772;48.646;8.906;2022-11-20T16:16:39;95614.91;;;4.48;100.00
4598;BME280;62772;48.646;8.906;2022-11-20T16:21:42;95608.00;;;4.33;100.00
4598;BME280;62772;48.646;8.906;2022-11-20T16:26:45;95605.53;;;4.56;100.00
4598;BME280;62772;48.646;8.906;2022-11-20T16:31:46;95603.63;;;4.76;100.00
4598;BME280;62772;48.646;8.906;2022-11-20T16:36:48;95605.13;;;4.82;100.00
4598;BME280;62772;48.646;8.906;2022-11-20T16:41:51;95602.56;;;4.77;100.00
4598;BME280;62772;48.646;8.906;2022-11-20T16:46:52;95604.13;;;4.45;100.00
4598;BME280;62772;48.646;8.906;2022-11-20T16:51:53;95601.41;;;4.31;100.00
4598;BME280;62772;48.646;8.906;2022-11-20T16:56:56;95593.06;;;4.24;100.00
4598;BME280;62772;48.646;8.906;2022-11-20T17:01:57;95589.97;;;4.35;100.00
4598;BME280;62772;48.646;8.906;2022-11-20T17:06:58;95584.28;;;4.28;100.00
4598;BME280;62772;48.646;8.906;2022-11-20T17:12:02;95587.47;;;4.44;100.00
4598;BME280;62772;48.646;8.906;2022-11-20T17:17:02;95590.34;;;4.29;100.00
4598;BME280;62772;48.646;8.906;2022-11-20T17:22:03;95580.50;;;4.34;100.00
4598;BME280;62772;48.646;8.906;2022-11-20T17:27:07;95573.44;;;4.44;100.00
4598;BME280;62772;48.646;8.906;2022-11-20T17:32:08;95577.53;;;4.55;100.00
4598;BME280;62772;48.646;8.906;2022-11-20T17:37:08;95574.72;;;4.65;100.00
4598;BME280;62772;48.646;8.906;2022-11-20T17:42:12;95569.50;;;4.60;100.00
4598;BME280;62772;48.646;8.906;2022-11-20T17:47:29;95565.22;;;4.31;100.00
4598;BME280;62772;48.646;8.906;2022-11-20T17:52:30;95561.41;;;4.38;100.00
4598;BME280;62772;48.646;8.906;2022-11-20T17:57:33;95551.63;;;4.19;100.00
4598;BME280;62772;48.646;8.906;2022-11-20T18:02:52;95542.06;;;4.56;100.00
4598;BME280;62772;48.646;8.906;2022-11-20T18:07:53;95528.19;;;4.64;100.00
4598;BME280;62772;48.646;8.906;2022-11-20T18:12:56;95523.16;;;4.63;100.00
4598;BME280;62772;48.646;8.906;2022-11-20T18:17:57;95519.31;;;4.41;100.00
4598;BME280;62772;48.646;8.906;2022-11-20T18:22:58;95512.50;;;4.54;100.00
4598;BME280;62772;48.646;8.906;2022-11-20T18:28:02;95507.06;;;4.45;100.00
4598;BME280;62772;48.646;8.906;2022-11-20T18:33:03;95503.25;;;4.51;100.00
4598;BME280;62772;48.646;8.906;2022-11-20T18:38:06;95500.09;;;4.35;100.00
4598;BME280;62772;48.646;8.906;2022-11-20T18:43:11;95498.06;;;4.46;100.00
4598;BME280;62772;48.646;8.906;2022-11-20T18:48:42;95513.31;;;4.35;100.00
4598;BME280;62772;48.646;8.906;2022-11-20T18:53:42;95499.56;;;4.00;100.00
4598;BME280;62772;48.646;8.906;2022-11-20T18:58:46;95502.50;;;3.80;100.00
4598;BME280;62772;48.646;8.906;2022-11-20T19:03:46;95509.09;;;4.02;100.00
4598;BME280;62772;48.646;8.906;2022-11-20T19:08:47;95500.38;;;3.82;100.00
4598;BME280;62772;48.646;8.906;2022-11-20T19:13:51;95495.59;;;3.84;100.00
4598;BME280;62772;48.646;8.906;2022-11-20T19:18:52;95498.38;;;3.55;100.00
4598;BME280;62772;48.646;8.906;2022-11-20T19:23:54;95496.16;;;3.62;100.00
4598;BME280;62772;48.646;8.906;2022-11-20T19:28:58;95492.22;;;3.59;100.00
4598;BME280;62772;48.646;8.906;2022-11-20T19:34:01;95476.81;;;3.48;100.00
4598;BME280;62772;48.646;8.906;2022-11-20T19:39:03;95478.16;;;3.45;100.00
4598;BME280;62772;48.646;8.906;2022-11-20T19:44:09;95475.81;;;3.43;100.00
4598;BME280;62772;48.646;8.906;2022-11-20T19:49:12;95465.31;;;3.38;100.00
4598;BME280;62772;48.646;8.906;2022-11-20T19:54:13;95470.44;;;3.11;100.00
4598;BME280;62772;48.646;8.906;2022-11-20T19:59:17;95462.38;;;3.21;100.00
4598;BME280;62772;48.646;8.906;2022-11-20T20:04:18;95466.00;;;3.06;100.00
4598;BME280;62772;48.646;8.906;2022-11-20T20:09:19;95452.91;;;2.96;100.00
4598;BME280;62772;48.646;8.906;2022-11-20T20:14:25;95446.91;;;3.14;100.00
4598;BME280;62772;48.646;8.906;2022-11-20T20:19:26;95456.50;;;3.05;100.00
4598;BME280;62772;48.646;8.906;2022-11-20T20:24:27;95461.25;;;3.27;100.00
4598;BME280;62772;48.646;8.906;2022-11-20T20:29:30;95461.75;;;3.29;100.00
4598;BME280;62772;48.646;8.906;2022-11-20T20:34:31;95482.59;;;3.06;100.00
4598;BME280;62772;48.646;8.906;2022-11-20T20:39:32;95488.84;;;3.16;100.00
4598;BME280;62772;48.646;8.906;2022-11-20T20:44:35;95493.44;;;3.05;100.00
4598;BME280;62772;48.646;8.906;2022-11-20T20:49:54;95508.38;;;2.90;100.00
4598;BME280;62772;48.646;8.906;2022-11-20T20:54:55;95523.75;;;3.07;100.00
4598;BME280;62772;48.646;8.906;2022-11-20T20:59:59;95518.34;;;3.18;100.00
4598;BME280;62772;48.646;8.906;2022-11-20T21:05:00;95530.31;;;2.86;100.00
4598;BME280;62772;48.646;8.906;2022-11-20T21:10:00;95536.53;;;2.95;100.00
4598;BME280;62772;48.646;8.906;2022-11-20T21:15:05;95540.06;;;2.85;100.00
4598;BME280;62772;48.646;8.906;2022-11-20T21:20:07;95540.25;;;2.94;100.00
4598;BME280;62772;48.646;8.906;2022-11-20T21:25:28;95540.19;;;2.99;100.00
4598;BME280;62772;48.646;8.906;2022-11-20T21:30:32;95528.63;;;2.95;100.00
4598;BME280;62772;48.646;8.906;2022-11-20T21:35:33;95517.19;;;2.81;100.00
4598;BME280;62772;48.646;8.906;2022-11-20T21:40:34;95514.44;;;3.15;100.00
4598;BME280;62772;48.646;8.906;2022-11-20T21:45:37;95518.00;;;3.24;100.00
4598;BME280;62772;48.646;8.906;2022-11-20T21:50:38;95515.66;;;2.99;100.00
4598;BME280;62772;48.646;8.906;2022-11-20T21:55:39;95530.22;;;2.96;100.00
4598;BME280;62772;48.646;8.906;2022-11-20T22:00:42;95527.06;;;2.94;100.00
4598;BME280;62772;48.646;8.906;2022-11-20T22:05:52;95528.06;;;3.22;100.00
4598;BME280;62772;48.646;8.906;2022-11-20T22:10:54;95535.50;;;3.20;100.00
4598;BME280;62772;48.646;8.906;2022-11-20T22:16:02;95537.63;;;3.18;100.00
4598;BME280;62772;48.646;8.906;2022-11-20T22:21:04;95538.75;;;3.12;100.00
4598;BME280;62772;48.646;8.906;2022-11-20T22:26:07;95533.06;;;3.00;100.00
4598;BME280;62772;48.646;8.906;2022-11-20T22:31:11;95540.97;;;3.24;100.00
4598;BME280;62772;48.646;8.906;2022-11-20T22:36:13;95545.47;;;2.99;100.00
4598;BME280;62772;48.646;8.906;2022-11-20T22:41:18;95549.13;;;3.03;100.00
4598;BME280;62772;48.646;8.906;2022-11-20T22:46:23;95543.91;;;2.98;100.00
4598;BME280;62772;48.646;8.906;2022-11-20T22:51:25;95546.31;;;2.95;100.00
4598;BME280;62772;48.646;8.906;2022-11-20T22:56:26;95550.34;;;2.87;100.00
4598;BME280;62772;48.646;8.906;2022-11-20T23:01:30;95552.38;;;2.66;100.00
4598;BME280;62772;48.646;8.906;2022-11-20T23:06:31;95542.84;;;2.70;100.00
4598;BME280;62772;48.646;8.906;2022-11-20T23:11:34;95531.38;;;2.56;100.00
4598;BME280;62772;48.646;8.906;2022-11-20T23:16:38;95524.47;;;2.89;100.00
4598;BME280;62772;48.646;8.906;2022-11-20T23:21:40;95520.38;;;3.02;100.00
4598;BME280;62772;48.646;8.906;2022-11-20T23:26:41;95515.28;;;3.11;100.00
4598;BME280;62772;48.646;8.906;2022-11-20T23:31:46;95516.91;;;3.06;100.00
4598;BME280;62772;48.646;8.906;2022-11-20T23:36:47;95526.88;;;3.09;100.00
4598;BME280;62772;48.646;8.906;2022-11-20T23:41:48;95541.19;;;3.03;100.00
4598;BME280;62772;48.646;8.906;2022-11-20T23:46:51;95564.41;;;2.77;100.00
4598;BME280;62772;48.646;8.906;2022-11-20T23:51:52;95554.97;;;2.71;100.00
4598;BME280;62772;48.646;8.906;2022-11-20T23:56:53;95542.94;;;2.89;100.00
